sensor_id;sensor_type;location;lat;lon;timestamp;pressure;altitude;pressure_sealevel;temperature
71640;BMP280;60912;48.968;10.124;2023-01-19T00:01:41;95424.53;;;-0.85
71640;BMP280;60912;48.968;10.124;2023-01-19T00:04:07;95425.56;;;-0.77
71640;BMP280;60912;48.968;10.124;2023-01-19T00:06:45;95430.69;;;-0.84
71640;BMP280;60912;48.968;10.124;2023-01-19T00:09:17;95425.31;;;-0.79
71640;BMP280;60912;48.968;10.124;2023-01-19T00:11:42;95425.03;;;-0.81
71640;BMP280;60912;48.968;10.124;2023-01-19T00:14:07;95428.47;;;-0.75
71640;BMP280;60912;48.968;10.124;2023-01-19T00:16:35;95419.41;;;-0.77
71640;BMP280;60912;48.968;10.124;2023-01-19T00:19:01;95424.78;;;-0.83
71640;BMP280;60912;48.968;10.124;2023-01-19T00:21:26;95440.03;;;-0.85
71640;BMP280;60912;48.968;10.124;2023-01-19T00:23:54;95432.13;;;-1.00
71640;BMP280;60912;48.968;10.124;2023-01-19T00:26:26;95440.72;;;-1.07
71640;BMP280;60912;48.968;10.124;2023-01-19T00:28:54;95444.63;;;-1.14
71640;BMP280;60912;48.968;10.124;2023-01-19T00:31:26;95444.63;;;-1.14
71640;BMP280;60912;48.968;10.124;2023-01-19T00:34:17;95448.31;;;-1.17
71640;BMP280;60912;48.968;10.124;2023-01-19T00:36:48;95452.03;;;-1.09
71640;BMP280;60912;48.968;10.124;2023-01-19T00:39:13;95447.63;;;-0.95
71640;BMP280;60912;48.968;10.124;2023-01-19T00:41:39;95453.81;;;-0.78
71640;BMP280;60912;48.968;10.124;2023-01-19T00:44:23;95454.31;;;-0.68
71640;BMP280;60912;48.968;10.124;2023-01-19T00:46:48;95461.47;;;-0.65
71640;BMP280;60912;48.968;10.124;2023-01-19T00:49:13;95464.63;;;-0.72
71640;BMP280;60912;48.968;10.124;2023-01-19T00:51:39;95454.28;;;-0.85
71640;BMP280;60912;48.968;10.124;2023-01-19T00:54:26;95457.19;;;-0.99
71640;BMP280;60912;48.968;10.124;2023-01-19T00:56:56;95464.78;;;-1.09
71640;BMP280;60912;48.968;10.124;2023-01-19T00:59:34;95468.66;;;-1.32
71640;BMP280;60912;48.968;10.124;2023-01-19T01:02:02;95476.19;;;-1.36
71640;BMP280;60912;48.968;10.124;2023-01-19T01:04:34;95475.53;;;-1.31
71640;BMP280;60912;48.968;10.124;2023-01-19T01:06:59;95469.09;;;-1.34
71640;BMP280;60912;48.968;10.124;2023-01-19T01:09:34;95469.56;;;-1.35
71640;BMP280;60912;48.968;10.124;2023-01-19T01:12:00;95466.13;;;-1.42
71640;BMP280;60912;48.968;10.124;2023-01-19T01:14:25;95473.00;;;-1.40
71640;BMP280;60912;48.968;10.124;2023-01-19T01:17:00;95471.28;;;-1.44
71640;BMP280;60912;48.968;10.124;2023-01-19T01:19:28;95486.69;;;-1.50
71640;BMP280;60912;48.968;10.124;2023-01-19T01:21:53;95478.28;;;-1.63
71640;BMP280;60912;48.968;10.124;2023-01-19T01:24:20;95471.41;;;-1.64
71640;BMP280;60912;48.968;10.124;2023-01-19T01:26:51;95478.28;;;-1.63
71640;BMP280;60912;48.968;10.124;2023-01-19T01:29:16;95478.34;;;-1.52
71640;BMP280;60912;48.968;10.124;2023-01-19T01:31:42;95474.91;;;-1.52
71640;BMP280;60912;48.968;10.124;2023-01-19T01:34:07;95480.06;;;-1.49
71640;BMP280;60912;48.968;10.124;2023-01-19T01:36:32;95481.50;;;-1.59
71640;BMP280;60912;48.968;10.124;2023-01-19T01:38:59;95478.06;;;-1.65
71640;BMP280;60912;48.968;10.124;2023-01-19T01:41:25;95480.28;;;-1.58
71640;BMP280;60912;48.968;10.124;2023-01-19T01:43:54;95476.88;;;-1.53
71640;BMP280;60912;48.968;10.124;2023-01-19T01:46:23;95485.22;;;-1.56
71640;BMP280;60912;48.968;10.124;2023-01-19T01:49:00;95481.19;;;-1.72
71640;BMP280;60912;48.968;10.124;2023-01-19T01:51:48;95484.81;;;-1.81
71640;BMP280;60912;48.968;10.124;2023-01-19T01:56:45;95493.41;;;-1.82
71640;BMP280;60912;48.968;10.124;2023-01-19T01:59:15;95490.97;;;-1.80
71640;BMP280;60912;48.968;10.124;2023-01-19T02:01:51;95493.81;;;-1.89
71640;BMP280;60912;48.968;10.124;2023-01-19T02:04:43;95492.03;;;-1.98
71640;BMP280;60912;48.968;10.124;2023-01-19T02:07:14;95493.22;;;-2.04
71640;BMP280;60912;48.968;10.124;2023-01-19T02:10:00;95504.03;;;-2.04
71640;BMP280;60912;48.968;10.124;2023-01-19T02:12:44;95504.03;;;-2.04
71640;BMP280;60912;48.968;10.124;2023-01-19T02:15:28;95505.06;;;-1.96
71640;BMP280;60912;48.968;10.124;2023-01-19T02:17:54;95499.91;;;-1.94
71640;BMP280;60912;48.968;10.124;2023-01-19T02:20:25;95502.88;;;-1.92
71640;BMP280;60912;48.968;10.124;2023-01-19T02:22:54;95504.13;;;-1.88
71640;BMP280;60912;48.968;10.124;2023-01-19T02:25:21;95497.84;;;-1.79
71640;BMP280;60912;48.968;10.124;2023-01-19T02:27:48;95498.09;;;-1.77
71640;BMP280;60912;48.968;10.124;2023-01-19T02:30:14;95509.88;;;-1.80
71640;BMP280;60912;48.968;10.124;2023-01-19T02:32:41;95503.19;;;-1.85
71640;BMP280;60912;48.968;10.124;2023-01-19T02:35:07;95513.69;;;-1.87
71640;BMP280;60912;48.968;10.124;2023-01-19T02:37:35;95512.69;;;-1.95
71640;BMP280;60912;48.968;10.124;2023-01-19T02:40:07;95509.72;;;-1.97
71640;BMP280;60912;48.968;10.124;2023-01-19T02:42:36;95509.19;;;-2.01
71640;BMP280;60912;48.968;10.124;2023-01-19T02:45:04;95503.56;;;-1.97
71640;BMP280;60912;48.968;10.124;2023-01-19T02:47:43;95510.91;;;-2.03
71640;BMP280;60912;48.968;10.124;2023-01-19T02:55:31;95511.47;;;-1.94
71640;BMP280;60912;48.968;10.124;2023-01-19T02:58:19;95516.84;;;-1.94
71640;BMP280;60912;48.968;10.124;2023-01-19T03:09:03;95517.34;;;-1.95
71640;BMP280;60912;48.968;10.124;2023-01-19T03:11:37;95519.88;;;-1.86
71640;BMP280;60912;48.968;10.124;2023-01-19T03:14:12;95518.22;;;-1.78
71640;BMP280;60912;48.968;10.124;2023-01-19T03:16:41;95524.09;;;-1.80
71640;BMP280;60912;48.968;10.124;2023-01-19T03:19:16;95517.44;;;-1.84
71640;BMP280;60912;48.968;10.124;2023-01-19T03:21:46;95526.75;;;-1.85
71640;BMP280;60912;48.968;10.124;2023-01-19T03:24:14;95524.78;;;-1.85
71640;BMP280;60912;48.968;10.124;2023-01-19T03:26:46;95524.50;;;-1.87
71640;BMP280;60912;48.968;10.124;2023-01-19T03:29:14;95530.94;;;-1.84
71640;BMP280;60912;48.968;10.124;2023-01-19T03:31:42;95540.31;;;-1.80
71640;BMP280;60912;48.968;10.124;2023-01-19T03:34:11;95538.38;;;-1.73
71640;BMP280;60912;48.968;10.124;2023-01-19T03:36:48;95534.44;;;-1.72
71640;BMP280;60912;48.968;10.124;2023-01-19T03:39:18;95537.97;;;-1.61
71640;BMP280;60912;48.968;10.124;2023-01-19T03:41:47;95544.22;;;-1.44
71640;BMP280;60912;48.968;10.124;2023-01-19T03:44:15;95541.59;;;-1.32
71640;BMP280;60912;48.968;10.124;2023-01-19T03:46:41;95545.78;;;-1.31
71640;BMP280;60912;48.968;10.124;2023-01-19T03:49:07;95551.34;;;-1.40
71640;BMP280;60912;48.968;10.124;2023-01-19T03:51:37;95548.34;;;-1.54
71640;BMP280;60912;48.968;10.124;2023-01-19T03:54:06;95545.88;;;-1.52
71640;BMP280;60912;48.968;10.124;2023-01-19T03:56:32;95544.63;;;-1.56
71640;BMP280;60912;48.968;10.124;2023-01-19T03:58:57;95547.13;;;-1.53
71640;BMP280;60912;48.968;10.124;2023-01-19T04:01:23;95543.41;;;-1.55
71640;BMP280;60912;48.968;10.124;2023-01-19T04:03:49;95554.22;;;-1.55
71640;BMP280;60912;48.968;10.124;2023-01-19T04:06:16;95541.13;;;-1.62
71640;BMP280;60912;48.968;10.124;2023-01-19T04:08:41;95541.38;;;-1.66
71640;BMP280;60912;48.968;10.124;2023-01-19T04:11:07;95542.63;;;-1.61
71640;BMP280;60912;48.968;10.124;2023-01-19T04:13:33;95549.03;;;-1.59
71640;BMP280;60912;48.968;10.124;2023-01-19T04:16:02;95551.47;;;-1.61
71640;BMP280;60912;48.968;10.124;2023-01-19T04:18:29;95553.41;;;-1.67
71640;BMP280;60912;48.968;10.124;2023-01-19T04:20:59;95550.22;;;-1.65
71640;BMP280;60912;48.968;10.124;2023-01-19T04:23:25;95555.38;;;-1.62
71640;BMP280;60912;48.968;10.124;2023-01-19T04:25:59;95555.22;;;-1.53
71640;BMP280;60912;48.968;10.124;2023-01-19T04:28:25;95551.84;;;-1.42
71640;BMP280;60912;48.968;10.124;2023-01-19T04:30:51;95550.63;;;-1.35
71640;BMP280;60912;48.968;10.124;2023-01-19T04:33:17;95546.78;;;-1.23
71640;BMP280;60912;48.968;10.124;2023-01-19T04:35:44;95549.75;;;-1.21
71640;BMP280;60912;48.968;10.124;2023-01-19T04:38:10;95550.78;;;-1.13
71640;BMP280;60912;48.968;10.124;2023-01-19T04:40:35;95537.78;;;-1.09
71640;BMP280;60912;48.968;10.124;2023-01-19T04:43:00;95544.91;;;-1.06
71640;BMP280;60912;48.968;10.124;2023-01-19T04:45:26;95540.75;;;-1.07
71640;BMP280;60912;48.968;10.124;2023-01-19T04:47:51;95537.22;;;-1.24
71640;BMP280;60912;48.968;10.124;2023-01-19T04:50:17;95532.75;;;-1.33
71640;BMP280;60912;48.968;10.124;2023-01-19T04:52:42;95534.44;;;-1.35
71640;BMP280;60912;48.968;10.124;2023-01-19T04:55:08;95541.03;;;-1.42
71640;BMP280;60912;48.968;10.124;2023-01-19T04:57:34;95542.72;;;-1.45
71640;BMP280;60912;48.968;10.124;2023-01-19T04:59:59;95541.41;;;-1.60
71640;BMP280;60912;48.968;10.124;2023-01-19T05:02:25;95548.03;;;-1.61
71640;BMP280;60912;48.968;10.124;2023-01-19T05:04:50;95545.56;;;-1.65
71640;BMP280;60912;48.968;10.124;2023-01-19T05:07:16;95549.38;;;-1.77
71640;BMP280;60912;48.968;10.124;2023-01-19T05:09:42;95551.84;;;-1.79
71640;BMP280;60912;48.968;10.124;2023-01-19T05:12:07;95556.78;;;-1.72
71640;BMP280;60912;48.968;10.124;2023-01-19T05:14:33;95559.84;;;-1.59
71640;BMP280;60912;48.968;10.124;2023-01-19T05:17:04;95568.25;;;-1.46
71640;BMP280;60912;48.968;10.124;2023-01-19T05:19:29;95568.06;;;-1.36
71640;BMP280;60912;48.968;10.124;2023-01-19T05:21:55;95570.03;;;-1.37
71640;BMP280;60912;48.968;10.124;2023-01-19T05:24:23;95565.09;;;-1.38
71640;BMP280;60912;48.968;10.124;2023-01-19T05:26:48;95568.00;;;-1.48
71640;BMP280;60912;48.968;10.124;2023-01-19T05:29:14;95558.66;;;-1.52
71640;BMP280;60912;48.968;10.124;2023-01-19T05:31:39;95571.16;;;-1.55
71640;BMP280;60912;48.968;10.124;2023-01-19T05:34:04;95574.41;;;-1.45
71640;BMP280;60912;48.968;10.124;2023-01-19T05:36:30;95583.63;;;-1.26
71640;BMP280;60912;48.968;10.124;2023-01-19T05:38:56;95584.47;;;-1.14
71640;BMP280;60912;48.968;10.124;2023-01-19T05:41:21;95577.06;;;-1.19
71640;BMP280;60912;48.968;10.124;2023-01-19T05:43:47;95591.03;;;-1.21
71640;BMP280;60912;48.968;10.124;2023-01-19T05:46:12;95590.31;;;-1.21
71640;BMP280;60912;48.968;10.124;2023-01-19T05:48:38;95588.13;;;-1.17
71640;BMP280;60912;48.968;10.124;2023-01-19T05:51:04;95583.78;;;-1.03
71640;BMP280;60912;48.968;10.124;2023-01-19T05:53:32;95591.19;;;-0.93
71640;BMP280;60912;48.968;10.124;2023-01-19T05:56:01;95596.91;;;-0.80
71640;BMP280;60912;48.968;10.124;2023-01-19T05:58:28;95590.56;;;-0.60
71640;BMP280;60912;48.968;10.124;2023-01-19T06:00:53;95598.25;;;-0.47
71640;BMP280;60912;48.968;10.124;2023-01-19T06:03:19;95589.66;;;-0.35
71640;BMP280;60912;48.968;10.124;2023-01-19T06:05:44;95597.84;;;-0.29
71640;BMP280;60912;48.968;10.124;2023-01-19T06:08:10;95591.88;;;-0.33
71640;BMP280;60912;48.968;10.124;2023-01-19T06:10:35;95593.13;;;-0.34
71640;BMP280;60912;48.968;10.124;2023-01-19T06:13:01;95591.16;;;-0.33
71640;BMP280;60912;48.968;10.124;2023-01-19T06:15:26;95603.94;;;-0.34
71640;BMP280;60912;48.968;10.124;2023-01-19T06:17:51;95589.19;;;-0.39
71640;BMP280;60912;48.968;10.124;2023-01-19T06:20:20;95594.31;;;-0.46
71640;BMP280;60912;48.968;10.124;2023-01-19T06:22:46;95598.97;;;-0.52
71640;BMP280;60912;48.968;10.124;2023-01-19T06:25:12;95593.28;;;-0.65
71640;BMP280;60912;48.968;10.124;2023-01-19T06:27:39;95601.88;;;-0.67
71640;BMP280;60912;48.968;10.124;2023-01-19T06:30:07;95593.03;;;-0.67
71640;BMP280;60912;48.968;10.124;2023-01-19T06:32:33;95602.63;;;-0.66
71640;BMP280;60912;48.968;10.124;2023-01-19T06:34:58;95610.00;;;-0.61
71640;BMP280;60912;48.968;10.124;2023-01-19T06:37:28;95614.72;;;-0.51
71640;BMP280;60912;48.968;10.124;2023-01-19T06:39:55;95616.97;;;-0.38
71640;BMP280;60912;48.968;10.124;2023-01-19T06:42:20;95618.91;;;-0.44
71640;BMP280;60912;48.968;10.124;2023-01-19T06:44:46;95618.38;;;-0.59
71640;BMP280;60912;48.968;10.124;2023-01-19T06:47:13;95624.69;;;-0.74
71640;BMP280;60912;48.968;10.124;2023-01-19T06:49:39;95622.22;;;-0.83
71640;BMP280;60912;48.968;10.124;2023-01-19T06:52:04;95623.69;;;-0.82
71640;BMP280;60912;48.968;10.124;2023-01-19T06:54:30;95612.34;;;-0.86
71640;BMP280;60912;48.968;10.124;2023-01-19T06:56:55;95622.97;;;-0.77
71640;BMP280;60912;48.968;10.124;2023-01-19T06:59:21;95621.50;;;-0.78
71640;BMP280;60912;48.968;10.124;2023-01-19T07:01:46;95629.31;;;-0.85
71640;BMP280;60912;48.968;10.124;2023-01-19T07:04:12;95631.53;;;-0.84
71640;BMP280;60912;48.968;10.124;2023-01-19T07:06:39;95628.41;;;-0.77
71640;BMP280;60912;48.968;10.124;2023-01-19T07:09:05;95635.81;;;-0.66
71640;BMP280;60912;48.968;10.124;2023-01-19T07:11:34;95644.94;;;-0.63
71640;BMP280;60912;48.968;10.124;2023-01-19T07:14:03;95644.19;;;-0.58
71640;BMP280;60912;48.968;10.124;2023-01-19T07:16:28;95651.34;;;-0.50
71640;BMP280;60912;48.968;10.124;2023-01-19T07:18:54;95650.44;;;-0.41
71640;BMP280;60912;48.968;10.124;2023-01-19T07:21:45;95646.94;;;-0.47
71640;BMP280;60912;48.968;10.124;2023-01-19T07:24:11;95647.69;;;-0.52
71640;BMP280;60912;48.968;10.124;2023-01-19T07:26:36;95647.56;;;-0.75
71640;BMP280;60912;48.968;10.124;2023-01-19T07:29:02;95647.34;;;-0.71
71640;BMP280;60912;48.968;10.124;2023-01-19T07:31:31;95662.88;;;-0.60
71640;BMP280;60912;48.968;10.124;2023-01-19T07:33:56;95656.31;;;-0.43
71640;BMP280;60912;48.968;10.124;2023-01-19T07:36:22;95664.31;;;-0.17
71640;BMP280;60912;48.968;10.124;2023-01-19T07:38:48;95667.28;;;-0.09
71640;BMP280;60912;48.968;10.124;2023-01-19T07:41:13;95659.19;;;-0.04
71640;BMP280;60912;48.968;10.124;2023-01-19T07:43:39;95654.75;;;0.05
71640;BMP280;60912;48.968;10.124;2023-01-19T07:46:07;95657.97;;;0.09
71640;BMP280;60912;48.968;10.124;2023-01-19T07:48:33;95663.88;;;0.13
71640;BMP280;60912;48.968;10.124;2023-01-19T07:51:05;95672.22;;;-0.02
71640;BMP280;60912;48.968;10.124;2023-01-19T07:53:33;95673.69;;;-0.07
71640;BMP280;60912;48.968;10.124;2023-01-19T07:56:18;95668.00;;;-0.09
71640;BMP280;60912;48.968;10.124;2023-01-19T07:58:53;95678.84;;;-0.14
71640;BMP280;60912;48.968;10.124;2023-01-19T08:01:21;95680.06;;;-0.15
71640;BMP280;60912;48.968;10.124;2023-01-19T08:03:47;95681.56;;;-0.14
71640;BMP280;60912;48.968;10.124;2023-01-19T08:06:24;95681.06;;;-0.13
71640;BMP280;60912;48.968;10.124;2023-01-19T08:08:51;95682.81;;;0.02
71640;BMP280;60912;48.968;10.124;2023-01-19T08:11:25;95688.75;;;0.17
71640;BMP280;60912;48.968;10.124;2023-01-19T08:13:53;95688.78;;;0.22
71640;BMP280;60912;48.968;10.124;2023-01-19T08:16:19;95685.06;;;0.20
71640;BMP280;60912;48.968;10.124;2023-01-19T08:18:47;95683.13;;;0.37
71640;BMP280;60912;48.968;10.124;2023-01-19T08:21:16;95687.81;;;0.48
71640;BMP280;60912;48.968;10.124;2023-01-19T08:23:50;95690.72;;;0.38
71640;BMP280;60912;48.968;10.124;2023-01-19T08:26:26;95699.63;;;0.28
71640;BMP280;60912;48.968;10.124;2023-01-19T08:29:03;95697.38;;;0.15
71640;BMP280;60912;48.968;10.124;2023-01-19T08:31:30;95695.91;;;0.25
71640;BMP280;60912;48.968;10.124;2023-01-19T08:33:58;95696.16;;;0.38
71640;BMP280;60912;48.968;10.124;2023-01-19T08:36:34;95693.97;;;0.37
71640;BMP280;60912;48.968;10.124;2023-01-19T08:39:00;95691.50;;;0.50
71640;BMP280;60912;48.968;10.124;2023-01-19T08:41:25;95698.41;;;0.57
71640;BMP280;60912;48.968;10.124;2023-01-19T08:43:51;95687.31;;;0.49
71640;BMP280;60912;48.968;10.124;2023-01-19T08:46:16;95682.13;;;0.51
71640;BMP280;60912;48.968;10.124;2023-01-19T08:48:45;95672.75;;;0.52
71640;BMP280;60912;48.968;10.124;2023-01-19T08:51:27;95682.88;;;0.46
71640;BMP280;60912;48.968;10.124;2023-01-19T08:54:24;95676.94;;;0.20
71640;BMP280;60912;48.968;10.124;2023-01-19T08:56:50;95675.50;;;0.24
71640;BMP280;60912;48.968;10.124;2023-01-19T08:59:16;95685.78;;;0.15
71640;BMP280;60912;48.968;10.124;2023-01-19T09:01:42;95690.72;;;0.11
71640;BMP280;60912;48.968;10.124;2023-01-19T09:04:07;95688.03;;;0.11
71640;BMP280;60912;48.968;10.124;2023-01-19T09:06:33;95688.00;;;-0.01
71640;BMP280;60912;48.968;10.124;2023-01-19T09:09:01;95680.88;;;0.13
71640;BMP280;60912;48.968;10.124;2023-01-19T09:11:27;95691.97;;;0.43
71640;BMP280;60912;48.968;10.124;2023-01-19T09:13:52;95680.88;;;0.19
71640;BMP280;60912;48.968;10.124;2023-01-19T09:16:21;95695.41;;;0.16
71640;BMP280;60912;48.968;10.124;2023-01-19T09:18:46;95693.22;;;0.20
71640;BMP280;60912;48.968;10.124;2023-01-19T09:21:12;95693.72;;;0.24
71640;BMP280;60912;48.968;10.124;2023-01-19T09:23:39;95693.47;;;0.22
71640;BMP280;60912;48.968;10.124;2023-01-19T09:26:05;95693.72;;;0.24
71640;BMP280;60912;48.968;10.124;2023-01-19T09:28:33;95696.66;;;0.37
71640;BMP280;60912;48.968;10.124;2023-01-19T09:30:58;95699.38;;;0.48
71640;BMP280;60912;48.968;10.124;2023-01-19T09:33:24;95701.84;;;0.46
71640;BMP280;60912;48.968;10.124;2023-01-19T09:35:55;95707.78;;;0.61
71640;BMP280;60912;48.968;10.124;2023-01-19T09:38:29;95707.03;;;0.89
71640;BMP280;60912;48.968;10.124;2023-01-19T09:41:19;95720.09;;;1.07
71640;BMP280;60912;48.968;10.124;2023-01-19T09:43:59;95712.19;;;1.20
71640;BMP280;60912;48.968;10.124;2023-01-19T09:46:40;95718.72;;;1.58
71640;BMP280;60912;48.968;10.124;2023-01-19T09:49:36;95712.75;;;1.76
71640;BMP280;60912;48.968;10.124;2023-01-19T09:52:25;95713.72;;;1.85
71640;BMP280;60912;48.968;10.124;2023-01-19T09:55:00;95718.16;;;1.82
71640;BMP280;60912;48.968;10.124;2023-01-19T09:57:26;95729.59;;;1.58
71640;BMP280;60912;48.968;10.124;2023-01-19T09:59:54;95733.78;;;1.54
71640;BMP280;60912;48.968;10.124;2023-01-19T10:02:32;95735.72;;;1.70
71640;BMP280;60912;48.968;10.124;2023-01-19T10:05:01;95734.28;;;1.58
71640;BMP280;60912;48.968;10.124;2023-01-19T10:13:02;95729.34;;;1.62
71640;BMP280;60912;48.968;10.124;2023-01-19T10:18:25;95728.44;;;1.95
71640;BMP280;60912;48.968;10.124;2023-01-19T10:26:08;95726.66;;;2.08
71640;BMP280;60912;48.968;10.124;2023-01-19T10:28:35;95723.38;;;2.27
71640;BMP280;60912;48.968;10.124;2023-01-19T10:31:22;95733.19;;;2.35
71640;BMP280;60912;48.968;10.124;2023-01-19T10:33:57;95722.22;;;2.52
71640;BMP280;60912;48.968;10.124;2023-01-19T10:36:44;95719.84;;;2.67
71640;BMP280;60912;48.968;10.124;2023-01-19T10:39:22;95722.28;;;3.01
71640;BMP280;60912;48.968;10.124;2023-01-19T10:41:50;95716.81;;;2.76
71640;BMP280;60912;48.968;10.124;2023-01-19T10:44:24;95711.78;;;2.56
71640;BMP280;60912;48.968;10.124;2023-01-19T10:46:51;95706.47;;;2.69
71640;BMP280;60912;48.968;10.124;2023-01-19T10:49:26;95703.88;;;2.58
71640;BMP280;60912;48.968;10.124;2023-01-19T10:51:54;95697.69;;;2.57
71640;BMP280;60912;48.968;10.124;2023-01-19T10:54:43;95709.72;;;2.32
71640;BMP280;60912;48.968;10.124;2023-01-19T10:57:09;95704.38;;;2.15
71640;BMP280;60912;48.968;10.124;2023-01-19T10:59:46;95696.84;;;2.38
71640;BMP280;60912;48.968;10.124;2023-01-19T11:04:43;95701.41;;;2.54
71640;BMP280;60912;48.968;10.124;2023-01-19T11:10:20;95706.19;;;2.43
71640;BMP280;60912;48.968;10.124;2023-01-19T11:12:56;95705.00;;;2.68
71640;BMP280;60912;48.968;10.124;2023-01-19T11:18:32;95696.19;;;2.62
71640;BMP280;60912;48.968;10.124;2023-01-19T11:21:04;95690.31;;;2.52
71640;BMP280;60912;48.968;10.124;2023-01-19T11:23:54;95686.31;;;2.59
71640;BMP280;60912;48.968;10.124;2023-01-19T11:26:47;95689.78;;;2.89
71640;BMP280;60912;48.968;10.124;2023-01-19T11:29:22;95686.34;;;3.08
71640;BMP280;60912;48.968;10.124;2023-01-19T11:31:49;95688.16;;;3.24
71640;BMP280;60912;48.968;10.124;2023-01-19T11:34:33;95688.50;;;3.39
71640;BMP280;60912;48.968;10.124;2023-01-19T11:37:20;95680.47;;;3.04
71640;BMP280;60912;48.968;10.124;2023-01-19T11:39:55;95687.28;;;3.16
71640;BMP280;60912;48.968;10.124;2023-01-19T11:42:38;95684.50;;;3.21
71640;BMP280;60912;48.968;10.124;2023-01-19T11:45:14;95685.22;;;2.97
71640;BMP280;60912;48.968;10.124;2023-01-19T11:47:46;95674.28;;;3.03
71640;BMP280;60912;48.968;10.124;2023-01-19T11:50:32;95683.75;;;3.21
71640;BMP280;60912;48.968;10.124;2023-01-19T11:53:24;95687.56;;;3.31
71640;BMP280;60912;48.968;10.124;2023-01-19T11:58:24;95675.94;;;3.30
71640;BMP280;60912;48.968;10.124;2023-01-19T12:03:46;95676.03;;;3.01
71640;BMP280;60912;48.968;10.124;2023-01-19T12:06:19;95677.63;;;3.15
71640;BMP280;60912;48.968;10.124;2023-01-19T12:09:26;95688.31;;;3.31
71640;BMP280;60912;48.968;10.124;2023-01-19T12:17:59;95690.66;;;2.97
71640;BMP280;60912;48.968;10.124;2023-01-19T12:20:35;95692.81;;;3.05
71640;BMP280;60912;48.968;10.124;2023-01-19T12:23:10;95688.72;;;3.17
71640;BMP280;60912;48.968;10.124;2023-01-19T12:28:29;95689.47;;;2.93
71640;BMP280;60912;48.968;10.124;2023-01-19T12:30:57;95689.25;;;2.91
71640;BMP280;60912;48.968;10.124;2023-01-19T12:33:36;95688.06;;;2.86
71640;BMP280;60912;48.968;10.124;2023-01-19T12:36:09;95689.78;;;3.14
71640;BMP280;60912;48.968;10.124;2023-01-19T12:39:11;95685.06;;;2.90
71640;BMP280;60912;48.968;10.124;2023-01-19T12:41:39;95687.47;;;3.18
71640;BMP280;60912;48.968;10.124;2023-01-19T12:46:55;95686.78;;;3.79
71640;BMP280;60912;48.968;10.124;2023-01-19T12:57:49;95689.31;;;3.53
71640;BMP280;60912;48.968;10.124;2023-01-19T13:02:55;95686.63;;;3.71
71640;BMP280;60912;48.968;10.124;2023-01-19T13:13:30;95672.34;;;2.98
71640;BMP280;60912;48.968;10.124;2023-01-19T13:19:14;95674.69;;;2.88
71640;BMP280;60912;48.968;10.124;2023-01-19T13:21:47;95680.66;;;3.30
71640;BMP280;60912;48.968;10.124;2023-01-19T13:24:17;95679.25;;;3.23
71640;BMP280;60912;48.968;10.124;2023-01-19T13:32:00;95678.94;;;3.51
71640;BMP280;60912;48.968;10.124;2023-01-19T13:37:10;95689.84;;;3.51
71640;BMP280;60912;48.968;10.124;2023-01-19T13:39:50;95698.34;;;3.42
71640;BMP280;60912;48.968;10.124;2023-01-19T13:42:28;95685.28;;;3.41
71640;BMP280;60912;48.968;10.124;2023-01-19T13:44:59;95690.44;;;3.20
71640;BMP280;60912;48.968;10.124;2023-01-19T13:47:43;95686.69;;;3.23
71640;BMP280;60912;48.968;10.124;2023-01-19T13:50:20;95699.72;;;3.06
71640;BMP280;60912;48.968;10.124;2023-01-19T13:52:46;95697.09;;;2.94
71640;BMP280;60912;48.968;10.124;2023-01-19T13:55:14;95698.31;;;2.99
71640;BMP280;60912;48.968;10.124;2023-01-19T13:57:41;95705.97;;;3.01
71640;BMP280;60912;48.968;10.124;2023-01-19T14:02:40;95703.00;;;2.74
71640;BMP280;60912;48.968;10.124;2023-01-19T14:08:12;95716.13;;;2.70
71640;BMP280;60912;48.968;10.124;2023-01-19T14:11:21;95714.09;;;2.76
71640;BMP280;60912;48.968;10.124;2023-01-19T14:13:33;95709.97;;;2.94
71640;BMP280;60912;48.968;10.124;2023-01-19T14:16:04;95713.50;;;2.89
71640;BMP280;60912;48.968;10.124;2023-01-19T14:18:31;95712.28;;;2.54
71640;BMP280;60912;48.968;10.124;2023-01-19T14:37:19;95723.13;;;2.25
71640;BMP280;60912;48.968;10.124;2023-01-19T14:42:25;95720.88;;;2.29
71640;BMP280;60912;48.968;10.124;2023-01-19T14:44:52;95723.81;;;2.31
71640;BMP280;60912;48.968;10.124;2023-01-19T14:47:34;95718.47;;;2.19
71640;BMP280;60912;48.968;10.124;2023-01-19T14:50:08;95720.91;;;2.23
71640;BMP280;60912;48.968;10.124;2023-01-19T14:56:30;95721.56;;;2.35
71640;BMP280;60912;48.968;10.124;2023-01-19T14:59:12;95717.88;;;2.32
71640;BMP280;60912;48.968;10.124;2023-01-19T15:02:12;95711.28;;;2.28
71640;BMP280;60912;48.968;10.124;2023-01-19T15:04:37;95710.44;;;2.33
71640;BMP280;60912;48.968;10.124;2023-01-19T15:11:00;95705.72;;;2.39
71640;BMP280;60912;48.968;10.124;2023-01-19T15:16:56;95704.28;;;2.32
71640;BMP280;60912;48.968;10.124;2023-01-19T15:19:27;95710.16;;;2.42
71640;BMP280;60912;48.968;10.124;2023-01-19T15:21:53;95716.09;;;2.40
71640;BMP280;60912;48.968;10.124;2023-01-19T15:24:18;95707.13;;;2.51
71640;BMP280;60912;48.968;10.124;2023-01-19T15:26:44;95713.25;;;2.57
71640;BMP280;60912;48.968;10.124;2023-01-19T15:29:24;95705.09;;;2.57
71640;BMP280;60912;48.968;10.124;2023-01-19T15:31:55;95707.38;;;2.53
71640;BMP280;60912;48.968;10.124;2023-01-19T15:34:30;95704.19;;;2.49
71640;BMP280;60912;48.968;10.124;2023-01-19T15:36:58;95704.19;;;2.49
71640;BMP280;60912;48.968;10.124;2023-01-19T15:39:24;95703.22;;;2.41
71640;BMP280;60912;48.968;10.124;2023-01-19T15:42:14;95700.16;;;2.20
71640;BMP280;60912;48.968;10.124;2023-01-19T15:44:42;95695.97;;;2.19
71640;BMP280;60912;48.968;10.124;2023-01-19T15:47:11;95700.72;;;2.07
71640;BMP280;60912;48.968;10.124;2023-01-19T15:49:41;95703.69;;;2.15
71640;BMP280;60912;48.968;10.124;2023-01-19T15:52:09;95699.44;;;2.19
71640;BMP280;60912;48.968;10.124;2023-01-19T15:54:35;95704.56;;;2.29
71640;BMP280;60912;48.968;10.124;2023-01-19T15:57:09;95705.31;;;2.29
71640;BMP280;60912;48.968;10.124;2023-01-19T15:59:35;95703.88;;;2.23
71640;BMP280;60912;48.968;10.124;2023-01-19T16:02:01;95708.31;;;2.20
71640;BMP280;60912;48.968;10.124;2023-01-19T16:04:42;95707.63;;;2.14
71640;BMP280;60912;48.968;10.124;2023-01-19T16:07:14;95710.41;;;1.97
71640;BMP280;60912;48.968;10.124;2023-01-19T16:09:39;95712.22;;;1.83
71640;BMP280;60912;48.968;10.124;2023-01-19T16:12:08;95709.22;;;1.87
71640;BMP280;60912;48.968;10.124;2023-01-19T16:14:34;95716.34;;;1.90
71640;BMP280;60912;48.968;10.124;2023-01-19T16:17:02;95708.72;;;1.89
71640;BMP280;60912;48.968;10.124;2023-01-19T16:19:27;95718.66;;;1.80
71640;BMP280;60912;48.968;10.124;2023-01-19T16:22:01;95717.19;;;1.79